BAW124 OBBI-EGLL
Flight info
| Callsign | BAW124 |
|---|---|
| Flight time | N/A |
| Altitude | 38000 |
| Route | BHR B457 NARMI N697 HIL T540 ENABI L550 NOVPA N697 MENLI L677 CVO L617 NOZ L551 ANTAR DCT KUGGI DCT DIMIS DCT VAKSU DCT AMUGO DCT UVODI DCT UMSON DCT IXONA DCT RESIA DCT ELMUR DCT RIPUS DCT DITON DCT HOC DCT LUL DCT RLP DCT ROTSI DCT KOTUN DCT NINAL DCT ABNUR DCT DIMAL DCT ALESO |
| Aircraft | B772/H-SDE2E3FGHIJ5LORVWXY/LB1D1 |
Departure
| Time | 2026-05-07 10:51 |
|---|---|
| Airport | Bahrain International Airport (OBBI) |
Arrival
| Time | N/A |
|---|---|
| Airport | London Heathrow Airport (EGLL) |
| Time | Latitude | Longitude | Altitude | Speed | Heading |
|---|---|---|---|---|---|
| 2026-05-07 10:07 | 26.27121 | 50.62560 | 18 ft | 0 kts | 213° |
| 2026-05-07 10:39 | 26.27128 | 50.62565 | 18 ft | 2 kts | 213° |
| 2026-05-07 10:39 | 26.27140 | 50.62574 | 18 ft | 2 kts | 213° |
| 2026-05-07 10:39 | 26.27148 | 50.62580 | 18 ft | 2 kts | 212° |
| 2026-05-07 10:39 | 26.27162 | 50.62587 | 18 ft | 2 kts | 193° |
| 2026-05-07 10:40 | 26.27177 | 50.62589 | 18 ft | 2 kts | 178° |
| 2026-05-07 10:40 | 26.27191 | 50.62587 | 18 ft | 2 kts | 162° |
| 2026-05-07 10:40 | 26.27205 | 50.62580 | 18 ft | 2 kts | 147° |
| 2026-05-07 10:40 | 26.27217 | 50.62570 | 18 ft | 2 kts | 131° |
| 2026-05-07 10:41 | 26.27223 | 50.62562 | 18 ft | 0 kts | 122° |
| 2026-05-07 10:41 | 26.27224 | 50.62559 | 18 ft | 0 kts | 122° |
| 2026-05-07 10:45 | 26.27212 | 50.62582 | 18 ft | 11 kts | 115° |
| 2026-05-07 10:46 | 26.27259 | 50.62680 | 18 ft | 16 kts | 68° |
| 2026-05-07 10:46 | 26.27213 | 50.62799 | 18 ft | 19 kts | 123° |
| 2026-05-07 10:46 | 26.27119 | 50.62946 | 18 ft | 26 kts | 126° |
| 2026-05-07 10:46 | 26.27004 | 50.63144 | 18 ft | 34 kts | 122° |
| 2026-05-07 10:47 | 26.26873 | 50.63368 | 18 ft | 31 kts | 123° |
| 2026-05-07 10:47 | 26.26754 | 50.63575 | 18 ft | 31 kts | 123° |
| 2026-05-07 10:47 | 26.26637 | 50.63776 | 18 ft | 30 kts | 123° |
| 2026-05-07 10:47 | 26.26523 | 50.63973 | 18 ft | 30 kts | 122° |
| 2026-05-07 10:48 | 26.26406 | 50.64176 | 18 ft | 30 kts | 122° |
| 2026-05-07 10:48 | 26.26290 | 50.64375 | 18 ft | 30 kts | 123° |
| 2026-05-07 10:48 | 26.26173 | 50.64576 | 18 ft | 31 kts | 123° |
| 2026-05-07 10:48 | 26.26053 | 50.64781 | 18 ft | 31 kts | 123° |
| 2026-05-07 10:49 | 26.26002 | 50.64929 | 18 ft | 12 kts | 58° |
| 2026-05-07 10:49 | 26.26034 | 50.64958 | 18 ft | 0 kts | 31° |
| 2026-05-07 10:49 | 26.26050 | 50.64969 | 18 ft | 10 kts | 32° |
| 2026-05-07 10:50 | 26.26119 | 50.65004 | 18 ft | 7 kts | 354° |
| 2026-05-07 10:50 | 26.26160 | 50.64965 | 18 ft | 8 kts | 303° |
| 2026-05-07 10:50 | 26.26214 | 50.64872 | 18 ft | 32 kts | 303° |
| 2026-05-07 10:50 | 26.26471 | 50.64429 | 18 ft | 100 kts | 303° |
| 2026-05-07 10:51 | 26.26961 | 50.63580 | 21 ft | 155 kts | 304° |
| 2026-05-07 10:51 | 26.27586 | 50.62490 | 362 ft | 173 kts | 303° |
| 2026-05-07 10:51 | 26.28222 | 50.61347 | 928 ft | 177 kts | 302° |
| 2026-05-07 10:51 | 26.28868 | 50.60194 | 1420 ft | 179 kts | 303° |
| 2026-05-07 10:52 | 26.29567 | 50.59010 | 1759 ft | 187 kts | 304° |
| 2026-05-07 10:52 | 26.30171 | 50.57742 | 2195 ft | 188 kts | 290° |
| 2026-05-07 10:52 | 26.30702 | 50.56370 | 2333 ft | 204 kts | 302° |
| 2026-05-07 10:52 | 26.31328 | 50.54868 | 2471 ft | 225 kts | 281° |
| 2026-05-07 10:53 | 26.31348 | 50.53051 | 2602 ft | 246 kts | 268° |
| 2026-05-07 10:53 | 26.31232 | 50.51073 | 2757 ft | 262 kts | 267° |
| 2026-05-07 10:53 | 26.31103 | 50.49014 | 3089 ft | 268 kts | 267° |
| 2026-05-07 10:53 | 26.30972 | 50.46949 | 3483 ft | 271 kts | 267° |
| 2026-05-07 10:54 | 26.30840 | 50.44860 | 3871 ft | 273 kts | 267° |
| 2026-05-07 10:54 | 26.30705 | 50.42745 | 4208 ft | 276 kts | 267° |
| 2026-05-07 10:54 | 26.30569 | 50.40594 | 4561 ft | 278 kts | 267° |
| 2026-05-07 10:54 | 26.30430 | 50.38459 | 4904 ft | 279 kts | 267° |
| 2026-05-07 10:55 | 26.30292 | 50.36291 | 5231 ft | 282 kts | 267° |
| 2026-05-07 10:55 | 26.30154 | 50.34101 | 5555 ft | 284 kts | 268° |
| 2026-05-07 10:55 | 26.30417 | 50.31927 | 5794 ft | 285 kts | 288° |
| 2026-05-07 10:55 | 26.31097 | 50.29862 | 6121 ft | 285 kts | 292° |
| 2026-05-07 10:56 | 26.31852 | 50.27776 | 6391 ft | 288 kts | 293° |
| 2026-05-07 10:56 | 26.32601 | 50.25713 | 6664 ft | 290 kts | 293° |
| 2026-05-07 10:56 | 26.33355 | 50.23623 | 6970 ft | 291 kts | 293° |
| 2026-05-07 10:56 | 26.34115 | 50.21519 | 7216 ft | 292 kts | 293° |
| 2026-05-07 10:57 | 26.34872 | 50.19419 | 7446 ft | 294 kts | 293° |
| 2026-05-07 10:57 | 26.35635 | 50.17298 | 7680 ft | 295 kts | 293° |
| 2026-05-07 10:57 | 26.36395 | 50.15184 | 7935 ft | 296 kts | 293° |
| 2026-05-07 10:57 | 26.37163 | 50.13048 | 8173 ft | 297 kts | 292° |
| 2026-05-07 10:58 | 26.37929 | 50.10912 | 8417 ft | 298 kts | 292° |
| 2026-05-07 10:58 | 26.38696 | 50.08775 | 8661 ft | 299 kts | 292° |
| 2026-05-07 10:58 | 26.39475 | 50.06606 | 8889 ft | 300 kts | 292° |
| 2026-05-07 10:58 | 26.40245 | 50.04459 | 9125 ft | 301 kts | 292° |
| 2026-05-07 10:59 | 26.41018 | 50.02300 | 9381 ft | 301 kts | 292° |
| 2026-05-07 10:59 | 26.41799 | 50.00119 | 9615 ft | 302 kts | 292° |
| 2026-05-07 10:59 | 26.42580 | 49.97941 | 9857 ft | 303 kts | 292° |
| 2026-05-07 10:59 | 26.43366 | 49.95739 | 9962 ft | 310 kts | 292° |
| 2026-05-07 11:00 | 26.44173 | 49.93485 | 10009 ft | 318 kts | 292° |
| 2026-05-07 11:00 | 26.44998 | 49.91184 | 10191 ft | 320 kts | 292° |
| 2026-05-07 11:00 | 26.45827 | 49.88861 | 10453 ft | 319 kts | 292° |
| 2026-05-07 11:00 | 26.46639 | 49.86585 | 10650 ft | 320 kts | 291° |
| 2026-05-07 11:01 | 26.47463 | 49.84275 | 10846 ft | 321 kts | 291° |
| 2026-05-07 11:01 | 26.48289 | 49.81960 | 11047 ft | 322 kts | 291° |
| 2026-05-07 11:01 | 26.49124 | 49.79619 | 11278 ft | 322 kts | 291° |
| 2026-05-07 11:01 | 26.49893 | 49.77276 | 11501 ft | 322 kts | 287° |
| 2026-05-07 11:02 | 26.50504 | 49.74889 | 11722 ft | 323 kts | 286° |
| 2026-05-07 11:02 | 26.51112 | 49.72479 | 11954 ft | 322 kts | 286° |
| 2026-05-07 11:02 | 26.51726 | 49.70052 | 12165 ft | 323 kts | 286° |
| 2026-05-07 11:02 | 26.52336 | 49.67645 | 12359 ft | 324 kts | 285° |
| 2026-05-07 11:03 | 26.52942 | 49.65251 | 12553 ft | 325 kts | 285° |
| 2026-05-07 11:03 | 26.53561 | 49.62798 | 12752 ft | 326 kts | 285° |
| 2026-05-07 11:03 | 26.54175 | 49.60369 | 12984 ft | 326 kts | 285° |
| 2026-05-07 11:03 | 26.54791 | 49.57924 | 13221 ft | 327 kts | 285° |
| 2026-05-07 11:04 | 26.55404 | 49.55488 | 13466 ft | 328 kts | 285° |
| 2026-05-07 11:04 | 26.56020 | 49.53038 | 13721 ft | 329 kts | 285° |
| 2026-05-07 11:04 | 26.56641 | 49.50568 | 13917 ft | 330 kts | 285° |
| 2026-05-07 11:04 | 26.57259 | 49.48110 | 14084 ft | 331 kts | 285° |
| 2026-05-07 11:05 | 26.57885 | 49.45616 | 14257 ft | 331 kts | 284° |
| 2026-05-07 11:05 | 26.58499 | 49.43167 | 14426 ft | 332 kts | 284° |
| 2026-05-07 11:05 | 26.59121 | 49.40684 | 14620 ft | 333 kts | 284° |
| 2026-05-07 11:05 | 26.59748 | 49.38184 | 14821 ft | 332 kts | 284° |
| 2026-05-07 11:06 | 26.60367 | 49.35713 | 14971 ft | 333 kts | 284° |
| 2026-05-07 11:06 | 26.60997 | 49.33198 | 15154 ft | 335 kts | 284° |
| 2026-05-07 11:06 | 26.61616 | 49.30729 | 15348 ft | 334 kts | 284° |
| 2026-05-07 11:06 | 26.62243 | 49.28215 | 15502 ft | 335 kts | 284° |
| 2026-05-07 11:07 | 26.62871 | 49.25703 | 15672 ft | 336 kts | 284° |
| 2026-05-07 11:07 | 26.63503 | 49.23170 | 15857 ft | 337 kts | 284° |
| 2026-05-07 11:07 | 26.64125 | 49.20668 | 16034 ft | 338 kts | 284° |
| 2026-05-07 11:07 | 26.64755 | 49.18137 | 16207 ft | 338 kts | 284° |
| 2026-05-07 11:08 | 26.65382 | 49.15614 | 16362 ft | 339 kts | 284° |
| 2026-05-07 11:08 | 26.66016 | 49.13061 | 16515 ft | 340 kts | 284° |
| 2026-05-07 11:08 | 26.66643 | 49.10536 | 16682 ft | 340 kts | 284° |
| 2026-05-07 11:08 | 26.67280 | 49.07967 | 16829 ft | 341 kts | 283° |
| 2026-05-07 11:09 | 26.67905 | 49.05448 | 16969 ft | 341 kts | 283° |
| 2026-05-07 11:09 | 26.68539 | 49.02884 | 17112 ft | 343 kts | 283° |
| 2026-05-07 11:09 | 26.69170 | 49.00326 | 17278 ft | 342 kts | 283° |
| 2026-05-07 11:09 | 26.69811 | 48.97735 | 17416 ft | 343 kts | 283° |
| 2026-05-07 11:10 | 26.70443 | 48.95184 | 17550 ft | 344 kts | 283° |
| 2026-05-07 11:10 | 26.71078 | 48.92612 | 17678 ft | 344 kts | 283° |
| 2026-05-07 11:10 | 26.71719 | 48.90015 | 17814 ft | 345 kts | 283° |
| 2026-05-07 11:10 | 26.72355 | 48.87433 | 17955 ft | 345 kts | 283° |
| 2026-05-07 11:11 | 26.72987 | 48.84864 | 18073 ft | 345 kts | 283° |
| 2026-05-07 11:11 | 26.73624 | 48.82277 | 18190 ft | 346 kts | 283° |
| 2026-05-07 11:11 | 26.74260 | 48.79688 | 18304 ft | 346 kts | 283° |
| 2026-05-07 11:11 | 26.74901 | 48.77081 | 18416 ft | 347 kts | 283° |
| 2026-05-07 11:12 | 26.75536 | 48.74492 | 18526 ft | 347 kts | 283° |
| 2026-05-07 11:12 | 26.76093 | 48.71874 | 18626 ft | 346 kts | 278° |
| 2026-05-07 11:12 | 26.76398 | 48.69213 | 18732 ft | 346 kts | 272° |
| 2026-05-07 11:12 | 26.76446 | 48.66544 | 18835 ft | 345 kts | 266° |
| 2026-05-07 11:13 | 26.76381 | 48.63834 | 18940 ft | 345 kts | 266° |
| 2026-05-07 11:13 | 26.76315 | 48.61157 | 19040 ft | 342 kts | 266° |
| 2026-05-07 11:13 | 26.76248 | 48.58521 | 19072 ft | 349 kts | 266° |
| 2026-05-07 11:13 | 26.76176 | 48.55743 | 19277 ft | 365 kts | 266° |
| 2026-05-07 11:14 | 26.76097 | 48.52839 | 19501 ft | 381 kts | 266° |
| 2026-05-07 11:14 | 26.76015 | 48.49833 | 19704 ft | 398 kts | 266° |
| 2026-05-07 11:14 | 26.75929 | 48.46685 | 19930 ft | 413 kts | 266° |
| 2026-05-07 11:14 | 26.75841 | 48.43446 | 20306 ft | 423 kts | 267° |
| 2026-05-07 11:15 | 26.75749 | 48.40138 | 20869 ft | 427 kts | 267° |
| 2026-05-07 11:15 | 26.75658 | 48.36838 | 21437 ft | 430 kts | 267° |
| 2026-05-07 11:15 | 26.75564 | 48.33460 | 21994 ft | 433 kts | 266° |
| 2026-05-07 11:15 | 26.75472 | 48.30097 | 22560 ft | 436 kts | 266° |
| 2026-05-07 11:16 | 26.75377 | 48.26704 | 23109 ft | 439 kts | 266° |
| 2026-05-07 11:16 | 26.75281 | 48.23295 | 23638 ft | 442 kts | 266° |
| 2026-05-07 11:16 | 26.75184 | 48.19874 | 24185 ft | 444 kts | 266° |
| 2026-05-07 11:16 | 26.75086 | 48.16431 | 24746 ft | 446 kts | 266° |
| 2026-05-07 11:17 | 26.74986 | 48.12968 | 25294 ft | 448 kts | 266° |
| 2026-05-07 11:17 | 26.74886 | 48.09508 | 25822 ft | 450 kts | 266° |